createdAt,value
2023-04-18T00:00:58.797Z,9.65
2023-04-18T00:03:31.489Z,9.55
2023-04-18T00:06:04.682Z,11.32
2023-04-18T00:08:37.270Z,14.73
2023-04-18T00:11:11.052Z,11.57
2023-04-18T00:13:44.439Z,13.65
2023-04-18T00:16:17.041Z,10.98
2023-04-18T00:18:49.688Z,10.75
2023-04-18T00:21:22.626Z,10.25
2023-04-18T00:23:55.128Z,11.23
2023-04-18T00:26:28.169Z,10.00
2023-04-18T00:29:05.852Z,12.88
2023-04-18T00:31:38.461Z,11.82
2023-04-18T00:34:11.671Z,12.23
2023-04-18T00:36:44.298Z,13.90
2023-04-18T00:39:16.813Z,13.45
2023-04-18T00:41:49.305Z,12.82
2023-04-18T00:44:21.956Z,12.25
2023-04-18T00:46:54.550Z,11.30
2023-04-18T00:49:27.751Z,13.43
2023-04-18T00:52:00.702Z,13.73
2023-04-18T00:54:33.325Z,13.77
2023-04-18T00:57:06.011Z,13.23
2023-04-18T00:59:38.912Z,11.30
2023-04-18T01:02:12.611Z,10.48
2023-04-18T01:04:45.468Z,10.88
2023-04-18T01:07:18.398Z,12.07
2023-04-18T01:09:53.061Z,11.52
2023-04-18T01:12:26.038Z,12.23
2023-04-18T01:15:00.581Z,10.93
2023-04-18T01:17:36.469Z,10.85
2023-04-18T01:20:13.677Z,10.82
2023-04-18T01:22:46.476Z,11.85
2023-04-18T01:25:18.977Z,10.35
2023-04-18T01:27:51.617Z,8.95
2023-04-18T01:30:24.643Z,9.35
2023-04-18T01:32:57.426Z,10.95
2023-04-18T01:35:30.709Z,9.93
2023-04-18T01:38:03.543Z,11.23
2023-04-18T01:40:36.043Z,11.45
2023-04-18T01:43:08.595Z,12.05
2023-04-18T01:45:41.177Z,10.35
2023-04-18T01:48:13.673Z,12.95
2023-04-18T01:50:46.278Z,9.27
2023-04-18T01:53:18.780Z,13.50
2023-04-18T01:55:51.316Z,12.05
2023-04-18T01:58:25.237Z,11.13
2023-04-18T02:00:58.022Z,8.48
2023-04-18T02:03:30.807Z,11.55
2023-04-18T02:06:05.881Z,10.73
2023-04-18T02:08:38.421Z,12.57
2023-04-18T02:11:10.913Z,10.82
2023-04-18T02:13:43.386Z,11.07
2023-04-18T02:16:16.362Z,10.70
2023-04-18T02:18:49.682Z,10.35
2023-04-18T02:21:22.688Z,8.77
2023-04-18T02:23:55.222Z,14.20
2023-04-18T02:26:27.714Z,10.43
2023-04-18T02:29:00.287Z,12.32
2023-04-18T02:31:33.218Z,11.18
2023-04-18T02:34:05.849Z,10.80
2023-04-18T02:36:38.426Z,11.73
2023-04-18T02:39:11.182Z,11.30
2023-04-18T02:41:43.979Z,16.23
2023-04-18T02:44:17.020Z,11.15
2023-04-18T02:46:49.545Z,11.27
2023-04-18T02:49:22.062Z,8.68
2023-04-18T02:51:55.925Z,13.68
2023-04-18T02:54:28.416Z,10.02
2023-04-18T02:57:01.261Z,12.65
2023-04-18T02:59:33.790Z,11.88
2023-04-18T03:02:06.363Z,10.75
2023-04-18T03:04:38.963Z,10.20
2023-04-18T03:07:11.482Z,10.65
2023-04-18T03:09:43.941Z,10.82
2023-04-18T03:12:16.490Z,10.40
2023-04-18T03:14:51.307Z,13.82
2023-04-18T03:17:24.009Z,7.90
2023-04-18T03:19:58.880Z,11.57
2023-04-18T03:22:31.426Z,11.63
2023-04-18T03:25:07.649Z,11.13
2023-04-18T03:30:13.355Z,8.77
2023-04-18T03:32:46.609Z,9.60
2023-04-18T03:35:19.478Z,10.93
2023-04-18T03:37:51.993Z,9.57
2023-04-18T03:40:27.182Z,9.75
2023-04-18T03:43:02.433Z,8.73
2023-04-18T03:45:35.071Z,10.80
2023-04-18T03:48:07.561Z,10.55
2023-04-18T03:50:40.577Z,11.18
2023-04-18T03:53:14.335Z,12.00
2023-04-18T03:55:46.927Z,14.73
2023-04-18T03:58:23.560Z,11.02
2023-04-18T04:00:58.039Z,10.73
2023-04-18T04:03:30.676Z,9.80
2023-04-18T04:06:03.971Z,10.70
2023-04-18T04:08:36.565Z,11.15
2023-04-18T04:11:11.853Z,11.23
2023-04-18T04:13:44.398Z,10.93
2023-04-18T04:16:17.050Z,10.30
2023-04-18T04:18:49.686Z,9.13
2023-04-18T04:21:22.263Z,7.47
2023-04-18T04:23:54.779Z,8.63
2023-04-18T04:26:27.903Z,13.48
2023-04-18T04:29:00.425Z,9.82
2023-04-18T04:31:33.075Z,9.40
2023-04-18T04:34:08.911Z,8.93
2023-04-18T04:36:43.054Z,8.93
2023-04-18T04:39:15.632Z,8.98
2023-04-18T04:41:49.199Z,11.07
2023-04-18T04:44:22.197Z,11.15
2023-04-18T04:46:54.755Z,14.10
2023-04-18T04:49:27.301Z,13.23
2023-04-18T04:52:01.443Z,15.10
2023-04-18T04:54:34.550Z,12.55
2023-04-18T04:57:07.035Z,12.68
2023-04-18T04:59:39.921Z,9.80
2023-04-18T05:02:12.596Z,9.57
2023-04-18T05:04:45.188Z,8.10
2023-04-18T05:07:17.669Z,12.57
2023-04-18T05:09:53.282Z,10.52
2023-04-18T05:12:26.818Z,10.10
2023-04-18T05:14:59.398Z,11.32
2023-04-18T05:17:31.910Z,7.40
2023-04-18T05:20:06.032Z,8.88
2023-04-18T05:22:38.702Z,12.73
2023-04-18T05:25:12.285Z,12.52
2023-04-18T05:27:46.811Z,10.80
2023-04-18T05:30:19.314Z,13.80
2023-04-18T05:32:51.956Z,10.98
2023-04-18T05:35:24.496Z,8.80
2023-04-18T05:37:58.396Z,9.05
2023-04-18T05:40:31.052Z,9.30
2023-04-18T05:43:03.589Z,9.35
2023-04-18T05:45:36.272Z,11.65
2023-04-18T05:48:09.056Z,9.88
2023-04-18T05:50:41.805Z,10.80
2023-04-18T05:53:14.601Z,10.98
2023-04-18T05:55:48.640Z,7.15
2023-04-18T05:58:21.480Z,10.30
2023-04-18T06:00:54.041Z,8.65
2023-04-18T06:03:26.651Z,11.98
2023-04-18T06:05:59.387Z,9.23
2023-04-18T06:08:34.153Z,6.78
2023-04-18T06:11:06.926Z,9.85
2023-04-18T06:13:42.480Z,8.80
2023-04-18T06:16:15.058Z,8.57
2023-04-18T06:18:51.066Z,14.70
2023-04-18T06:21:23.746Z,8.60
2023-04-18T06:23:56.283Z,9.40
2023-04-18T06:26:30.043Z,9.13
2023-04-18T06:29:02.580Z,10.07
2023-04-18T06:31:35.416Z,9.80
2023-04-18T06:34:07.944Z,9.68
2023-04-18T06:36:40.672Z,10.95
2023-04-18T06:39:16.234Z,7.32
2023-04-18T06:41:49.483Z,9.18
2023-04-18T06:44:22.095Z,8.88
2023-04-18T06:46:55.673Z,10.38
2023-04-18T06:49:28.282Z,8.80
2023-04-18T06:52:00.741Z,8.70
2023-04-18T06:54:33.289Z,12.52
2023-04-18T06:57:06.063Z,9.15
2023-04-18T06:59:38.609Z,8.93
2023-04-18T07:02:11.468Z,9.68
2023-04-18T07:04:44.233Z,9.02
2023-04-18T07:07:16.817Z,13.00
2023-04-18T07:09:50.243Z,9.20
2023-04-18T07:12:22.919Z,11.63
2023-04-18T07:14:55.448Z,12.10
2023-04-18T07:17:27.955Z,11.07
2023-04-18T07:20:00.726Z,12.27
2023-04-18T07:22:33.219Z,9.77
2023-04-18T07:25:05.963Z,8.98
2023-04-18T07:27:38.607Z,9.80
2023-04-18T07:30:12.118Z,9.73
2023-04-18T07:32:45.482Z,9.98
2023-04-18T07:35:18.433Z,9.18
2023-04-18T07:37:53.220Z,7.88
2023-04-18T07:40:25.751Z,8.88
2023-04-18T07:42:58.313Z,8.63
2023-04-18T07:45:31.227Z,6.78
2023-04-18T07:48:05.044Z,7.47
2023-04-18T07:50:38.092Z,7.85
2023-04-18T07:53:10.740Z,10.48
2023-04-18T07:55:43.431Z,8.52
2023-04-18T07:58:16.829Z,7.93
2023-04-18T08:00:49.360Z,9.50
2023-04-18T08:03:22.083Z,7.35
2023-04-18T08:05:54.806Z,10.80
2023-04-18T08:08:27.407Z,7.32
2023-04-18T08:10:59.972Z,7.05
2023-04-18T08:13:32.620Z,10.20
2023-04-18T08:16:05.608Z,8.68
2023-04-18T08:18:38.370Z,9.55
2023-04-18T08:21:11.008Z,14.63
2023-04-18T08:23:43.554Z,9.20
2023-04-18T08:26:16.164Z,6.95
2023-04-18T08:28:48.792Z,9.20
2023-04-18T08:31:21.969Z,8.90
2023-04-18T08:33:54.566Z,8.18
2023-04-18T08:36:27.908Z,8.15
2023-04-18T08:39:00.371Z,8.02
2023-04-18T08:41:37.753Z,9.18
2023-04-18T08:44:10.284Z,10.30
2023-04-18T08:46:42.801Z,8.32
2023-04-18T08:49:17.579Z,8.80
2023-04-18T08:51:52.000Z,8.48
2023-04-18T08:54:27.240Z,7.22
2023-04-18T08:57:08.681Z,8.73
2023-04-18T08:59:43.154Z,8.65
2023-04-18T09:02:16.894Z,7.93
2023-04-18T09:04:52.633Z,6.78
2023-04-18T09:10:01.895Z,7.38
2023-04-18T09:12:52.223Z,10.05
2023-04-18T09:15:29.241Z,7.00
2023-04-18T09:18:03.330Z,10.60
2023-04-18T09:20:41.534Z,8.50
2023-04-18T09:23:24.439Z,9.93
2023-04-18T09:25:57.185Z,7.88
2023-04-18T09:28:33.230Z,8.70
2023-04-18T09:31:12.925Z,7.55
2023-04-18T09:33:54.304Z,7.45
2023-04-18T09:36:27.949Z,6.32
2023-04-18T09:39:00.575Z,7.38
2023-04-18T09:41:33.508Z,8.05
2023-04-18T09:44:15.043Z,7.38
2023-04-18T09:46:49.447Z,8.98
2023-04-18T09:49:25.684Z,6.72
2023-04-18T09:52:01.992Z,9.43
2023-04-18T09:54:40.865Z,6.47
2023-04-18T09:57:14.658Z,9.13
2023-04-18T10:00:01.662Z,9.43
2023-04-18T10:02:52.368Z,5.65
2023-04-18T10:05:33.511Z,7.47
2023-04-18T10:08:07.984Z,7.47
2023-04-18T10:10:41.279Z,5.50
2023-04-18T10:13:14.514Z,8.68
2023-04-18T10:15:51.321Z,8.15
2023-04-18T10:18:24.506Z,7.57
2023-04-18T10:21:04.293Z,8.77
2023-04-18T10:23:41.097Z,6.93
2023-04-18T10:26:13.658Z,8.80
2023-04-18T10:28:53.318Z,5.22
2023-04-18T10:31:29.027Z,4.72
2023-04-18T10:34:07.073Z,5.03
2023-04-18T10:37:05.966Z,7.22
2023-04-18T10:40:11.441Z,4.10
2023-04-18T10:42:47.079Z,4.88
2023-04-18T10:48:26.000Z,4.50
2023-04-18T10:51:19.325Z,9.88
2023-04-18T10:53:56.383Z,5.03
2023-04-18T10:56:29.089Z,6.28
2023-04-18T10:59:03.347Z,6.30
2023-04-18T11:01:38.111Z,4.97
2023-04-18T11:04:14.005Z,6.20
2023-04-18T11:06:54.913Z,6.43
2023-04-18T11:09:27.598Z,5.22
2023-04-18T11:12:18.309Z,5.40
2023-04-18T11:14:54.365Z,6.45
2023-04-18T11:17:40.148Z,5.68
2023-04-18T11:20:15.159Z,5.63
2023-04-18T11:22:51.700Z,5.57
2023-04-18T11:25:31.698Z,4.80
2023-04-18T11:28:04.851Z,7.40
2023-04-18T11:30:41.464Z,8.05
2023-04-18T11:33:15.637Z,9.85
2023-04-18T11:35:48.138Z,11.23
2023-04-18T11:38:21.726Z,7.55
2023-04-18T11:40:55.866Z,7.90
2023-04-18T11:43:28.338Z,11.52
2023-04-18T11:46:01.795Z,9.38
2023-04-18T11:48:39.897Z,8.98
2023-04-18T11:51:38.629Z,7.25
2023-04-18T11:54:45.449Z,8.15
2023-04-18T11:57:29.999Z,10.70
2023-04-18T12:00:03.360Z,8.43
2023-04-18T12:02:46.538Z,7.30
2023-04-18T12:05:31.909Z,7.38
2023-04-18T12:08:18.354Z,9.10
2023-04-18T12:10:54.191Z,8.50
2023-04-18T12:13:32.667Z,7.63
2023-04-18T12:16:07.648Z,7.40
2023-04-18T12:18:41.829Z,9.43
2023-04-18T12:21:16.849Z,10.25
2023-04-18T12:23:49.456Z,9.48
2023-04-18T12:26:23.649Z,14.90
2023-04-18T12:28:56.331Z,9.20
2023-04-18T12:31:28.976Z,8.77
2023-04-18T12:34:01.524Z,10.25
2023-04-18T12:36:34.027Z,9.68
2023-04-18T12:39:06.585Z,8.55
2023-04-18T12:41:39.190Z,10.57
2023-04-18T12:44:11.865Z,10.60
2023-04-18T12:46:44.519Z,10.90
2023-04-18T12:49:17.052Z,10.35
2023-04-18T12:51:49.582Z,13.30
2023-04-18T12:54:22.260Z,10.77
2023-04-18T12:56:54.804Z,9.40
2023-04-18T12:59:28.027Z,11.25
2023-04-18T13:02:00.722Z,9.63
2023-04-18T13:04:33.606Z,10.65
2023-04-18T13:07:06.363Z,9.18
2023-04-18T13:09:38.885Z,7.97
2023-04-18T13:12:11.606Z,7.68
2023-04-18T13:14:44.108Z,9.15
2023-04-18T13:17:16.682Z,9.85
2023-04-18T13:19:49.421Z,9.82
2023-04-18T13:22:22.354Z,11.60
2023-04-18T13:24:54.853Z,10.52
2023-04-18T13:27:27.566Z,10.93
2023-04-18T13:30:00.318Z,13.25
2023-04-18T13:32:33.103Z,11.50
2023-04-18T13:35:08.802Z,9.70
2023-04-18T13:37:41.592Z,10.50
2023-04-18T13:40:14.194Z,11.80
2023-04-18T13:42:46.799Z,13.75
2023-04-18T13:45:19.331Z,13.40
2023-04-18T13:47:51.834Z,14.52
2023-04-18T13:50:24.590Z,11.73
2023-04-18T13:52:57.075Z,12.23
2023-04-18T13:55:29.636Z,10.43
2023-04-18T13:58:02.361Z,11.45
2023-04-18T14:00:35.110Z,11.32
2023-04-18T14:03:07.808Z,10.95
2023-04-18T14:05:40.602Z,10.95
2023-04-18T14:08:14.195Z,9.77
2023-04-18T14:10:46.812Z,9.93
2023-04-18T14:13:19.300Z,11.65
2023-04-18T14:15:55.303Z,10.43
2023-04-18T14:18:28.505Z,13.27
2023-04-18T14:21:01.225Z,12.80
2023-04-18T14:23:35.426Z,12.93
2023-04-18T14:26:08.039Z,13.43
2023-04-18T14:28:40.549Z,12.23
2023-04-18T14:31:14.292Z,12.95
2023-04-18T14:33:46.887Z,12.88
2023-04-18T14:36:19.579Z,11.50
2023-04-18T14:38:52.135Z,12.70
2023-04-18T14:41:24.657Z,14.23
2023-04-18T14:43:57.166Z,13.25
2023-04-18T14:46:30.689Z,14.10
2023-04-18T14:49:03.234Z,13.13
2023-04-18T14:51:35.781Z,14.38
2023-04-18T14:54:08.367Z,14.13
2023-04-18T14:56:40.885Z,15.63
2023-04-18T14:59:16.375Z,12.75
2023-04-18T15:01:49.557Z,12.07
2023-04-18T15:04:22.393Z,14.75
2023-04-18T15:06:58.268Z,14.20
2023-04-18T15:09:35.471Z,15.52
2023-04-18T15:12:08.213Z,14.32
2023-04-18T15:14:40.786Z,13.07
2023-04-18T15:17:13.784Z,12.73
2023-04-18T15:19:46.492Z,15.18
2023-04-18T15:22:18.974Z,12.00
2023-04-18T15:24:54.403Z,13.50
2023-04-18T15:27:26.952Z,14.70
2023-04-18T15:29:59.516Z,11.98
2023-04-18T15:32:32.661Z,12.98
2023-04-18T15:35:06.680Z,13.27
2023-04-18T15:37:39.312Z,12.88
2023-04-18T15:40:16.132Z,15.13
2023-04-18T15:42:50.851Z,13.73
2023-04-18T15:45:23.621Z,15.77
2023-04-18T15:47:56.202Z,17.20
2023-04-18T15:50:28.989Z,12.40
2023-04-18T15:53:02.578Z,14.52
2023-04-18T15:55:35.054Z,13.48
2023-04-18T15:58:07.590Z,25.77
2023-04-18T16:00:40.253Z,16.65
2023-04-18T16:03:18.765Z,13.82
2023-04-18T16:05:54.613Z,16.30
2023-04-18T16:08:33.557Z,14.68
2023-04-18T16:11:10.046Z,16.25
2023-04-18T16:13:43.237Z,17.08
2023-04-18T16:16:15.864Z,13.23
2023-04-18T16:18:48.449Z,18.45
2023-04-18T16:21:21.088Z,19.05
2023-04-18T16:23:53.700Z,14.82
2023-04-18T16:26:26.319Z,27.08
2023-04-18T16:28:59.235Z,25.27
2023-04-18T16:31:33.776Z,15.45
2023-04-18T16:34:06.405Z,15.95
2023-04-18T16:36:39.013Z,17.08
2023-04-18T16:39:12.020Z,13.05
2023-04-18T16:41:44.876Z,12.38
2023-04-18T16:44:17.405Z,10.68
2023-04-18T16:46:50.200Z,13.07
2023-04-18T16:49:23.655Z,10.50
2023-04-18T16:51:56.197Z,10.68
2023-04-18T16:54:29.256Z,12.68
2023-04-18T16:57:02.699Z,13.40
2023-04-18T16:59:35.329Z,11.68
2023-04-18T17:02:08.112Z,12.48
2023-04-18T17:04:40.989Z,11.40
2023-04-18T17:07:13.691Z,13.68
2023-04-18T17:09:46.325Z,15.75
2023-04-18T17:12:18.826Z,15.88
2023-04-18T17:14:51.310Z,17.50
2023-04-18T17:17:23.965Z,11.02
2023-04-18T17:19:57.335Z,17.30
2023-04-18T17:22:30.168Z,13.07
2023-04-18T17:25:03.328Z,12.73
2023-04-18T17:27:35.837Z,13.07
2023-04-18T17:30:09.159Z,12.77
2023-04-18T17:32:45.521Z,14.15
2023-04-18T17:35:18.220Z,17.67
2023-04-18T17:37:52.797Z,12.88
2023-04-18T17:40:25.563Z,13.02
2023-04-18T17:42:58.251Z,10.27
2023-04-18T17:45:30.876Z,11.98
2023-04-18T17:48:03.771Z,10.57
2023-04-18T17:50:37.993Z,11.63
2023-04-18T17:53:12.349Z,10.70
2023-04-18T17:55:46.701Z,10.27
2023-04-18T17:58:20.043Z,12.55
2023-04-18T18:00:58.801Z,12.13
2023-04-18T18:03:31.493Z,10.90
2023-04-18T18:06:04.130Z,15.85
2023-04-18T18:08:50.754Z,11.52
2023-04-18T18:11:23.654Z,12.43
2023-04-18T18:13:57.290Z,12.30
2023-04-18T18:16:30.231Z,11.50
2023-04-18T18:19:02.824Z,12.63
2023-04-18T18:21:38.777Z,12.45
2023-04-18T18:24:14.182Z,12.05
2023-04-18T18:26:46.813Z,12.43
2023-04-18T18:29:19.893Z,13.40
2023-04-18T18:31:52.896Z,13.45
2023-04-18T18:34:26.995Z,13.23
2023-04-18T18:36:59.584Z,11.90
2023-04-18T18:39:32.817Z,16.50
2023-04-18T18:42:05.724Z,12.95
2023-04-18T18:44:38.239Z,12.77
2023-04-18T18:47:10.793Z,14.27
2023-04-18T18:49:43.264Z,13.10
2023-04-18T18:52:16.060Z,13.35
2023-04-18T18:54:48.570Z,13.93
2023-04-18T18:57:21.371Z,12.45
2023-04-18T18:59:57.092Z,13.68
2023-04-18T19:05:07.629Z,14.95
2023-04-18T19:07:43.564Z,10.60
2023-04-18T19:10:25.727Z,13.93
2023-04-18T19:13:00.839Z,13.25
2023-04-18T19:15:35.992Z,12.50
2023-04-18T19:18:10.923Z,14.00
2023-04-18T19:20:43.627Z,10.73
2023-04-18T19:23:19.605Z,18.95
2023-04-18T19:25:54.850Z,12.02
2023-04-18T19:28:36.261Z,12.18
2023-04-18T19:31:09.913Z,12.45
2023-04-18T19:33:52.254Z,12.20
2023-04-18T19:36:33.847Z,14.43
2023-04-18T19:39:07.043Z,14.40
2023-04-18T19:41:43.117Z,13.38
2023-04-18T19:44:21.039Z,13.80
2023-04-18T19:46:53.583Z,12.43
2023-04-18T19:49:26.411Z,13.35
2023-04-18T19:51:59.022Z,12.32
2023-04-18T19:54:33.346Z,13.52
2023-04-18T19:57:06.370Z,12.48
2023-04-18T19:59:38.933Z,15.00
2023-04-18T20:02:11.502Z,13.43
2023-04-18T20:04:44.842Z,13.13
2023-04-18T20:07:17.504Z,13.13
2023-04-18T20:09:52.226Z,16.63
2023-04-18T20:12:24.922Z,11.57
2023-04-18T20:14:58.832Z,11.70
2023-04-18T20:17:31.500Z,11.98
2023-04-18T20:20:04.723Z,13.30
2023-04-18T20:22:39.927Z,10.50
2023-04-18T20:25:12.512Z,11.45
2023-04-18T20:27:45.056Z,12.88
2023-04-18T20:30:18.750Z,13.40
2023-04-18T20:32:51.519Z,11.18
2023-04-18T20:35:24.079Z,12.05
2023-04-18T20:37:57.752Z,12.40
2023-04-18T20:40:30.269Z,11.85
2023-04-18T20:43:03.237Z,11.15
2023-04-18T20:45:37.436Z,13.68
2023-04-18T20:48:10.246Z,10.77
2023-04-18T20:50:44.409Z,15.35
2023-04-18T20:53:21.575Z,11.60
2023-04-18T20:55:54.462Z,11.70
2023-04-18T20:58:26.911Z,11.57
2023-04-18T21:00:59.491Z,9.98
2023-04-18T21:03:32.157Z,10.50
2023-04-18T21:06:04.841Z,13.00
2023-04-18T21:08:39.199Z,13.18
2023-04-18T21:11:11.737Z,12.60
2023-04-18T21:13:44.302Z,16.45
2023-04-18T21:16:17.016Z,14.93
2023-04-18T21:18:49.539Z,11.93
2023-04-18T21:21:24.563Z,10.90
2023-04-18T21:23:57.291Z,12.77
2023-04-18T21:26:29.849Z,11.68
2023-04-18T21:29:04.733Z,13.70
2023-04-18T21:31:37.365Z,15.90
2023-04-18T21:34:11.224Z,14.00
2023-04-18T21:36:43.832Z,10.55
2023-04-18T21:39:16.581Z,9.85
2023-04-18T21:41:49.068Z,11.32
2023-04-18T21:44:21.591Z,10.32
2023-04-18T21:46:54.310Z,11.48
2023-04-18T21:49:27.041Z,12.45
2023-04-18T21:51:59.827Z,10.05
2023-04-18T21:54:32.374Z,11.77
2023-04-18T21:57:06.597Z,10.55
2023-04-18T21:59:39.201Z,10.35
2023-04-18T22:02:12.503Z,11.98
2023-04-18T22:04:45.138Z,12.30
2023-04-18T22:07:18.821Z,12.57
2023-04-18T22:09:51.481Z,12.65
2023-04-18T22:12:24.491Z,11.15
2023-04-18T22:14:57.160Z,10.82
2023-04-18T22:17:29.988Z,10.73
2023-04-18T22:20:04.215Z,11.40
2023-04-18T22:22:36.711Z,11.07
2023-04-18T22:25:11.538Z,11.63
2023-04-18T22:27:45.055Z,9.02
2023-04-18T22:30:17.834Z,10.93
2023-04-18T22:32:50.552Z,10.60
2023-04-18T22:35:23.220Z,10.25
2023-04-18T22:37:56.033Z,10.48
2023-04-18T22:40:28.598Z,10.52
2023-04-18T22:43:02.218Z,11.10
2023-04-18T22:45:34.981Z,9.68
2023-04-18T22:48:11.448Z,13.05
2023-04-18T22:50:44.221Z,12.43
2023-04-18T22:53:16.895Z,11.73
2023-04-18T22:55:49.408Z,9.20
2023-04-18T22:58:22.127Z,11.95
2023-04-18T23:00:54.889Z,10.63
2023-04-18T23:03:27.486Z,8.98
2023-04-18T23:06:01.357Z,10.00
2023-04-18T23:08:33.959Z,11.38
2023-04-18T23:11:06.467Z,11.05
2023-04-18T23:13:39.034Z,10.27
2023-04-18T23:16:11.534Z,14.82
2023-04-18T23:18:44.044Z,12.57
2023-04-18T23:21:29.699Z,11.88
2023-04-18T23:24:02.323Z,10.95
2023-04-18T23:26:34.925Z,13.98
2023-04-18T23:29:07.497Z,12.52
2023-04-18T23:31:40.255Z,11.02
2023-04-18T23:34:13.042Z,11.98
2023-04-18T23:36:45.772Z,11.50
2023-04-18T23:39:18.556Z,12.57
2023-04-18T23:41:51.049Z,11.25
2023-04-18T23:44:23.836Z,10.32
2023-04-18T23:46:56.459Z,13.00
2023-04-18T23:49:29.094Z,19.55
2023-04-18T23:52:01.665Z,10.82
2023-04-18T23:54:34.335Z,13.57
2023-04-18T23:57:06.906Z,13.43
2023-04-18T23:59:39.475Z,12.07
